Alsip, Illinois
Current Conditions -  °F | °C
As of 11:53 PM on Sunday 19 Oct 2014 (Local Time) from KMDW Reporting Station
Broken Clouds Broken Clouds  
Wind Chill: 12°   Ceiling: 9500
Heat Index: 12°   Visibility: 10mi
Dew Point:   Wind: 12mph
Humidity: 74%   Direction: 210°SSW
Pressure: 29.92"   Gusts: NA
Location:  41.67°N, 87.73°W
Report Text: KMDW 200453Z 21010KT 10SM BKN095 BKN150 12/07 A2992 RMK AO2 SLP133 T01170072
Loading
Personal Weather Stations






























Interactive Weather Map
Tropical Storm Tracking
New forecast layout! Learn more

10-Day Weather Forecast

Advertisements
Track Severe Weather on mobile